sensor_id;sensor_type;location;lat;lon;timestamp;pressure;altitude;pressure_sealevel;temperature;humidity
55916;BME280;41826;53.246;-6.670;2022-09-09T00:00:23;99723.53;;;15.45;100.00
55916;BME280;41826;53.246;-6.670;2022-09-09T00:03:14;99732.03;;;15.34;100.00
55916;BME280;41826;53.246;-6.670;2022-09-09T00:05:54;99726.16;;;15.32;100.00
55916;BME280;41826;53.246;-6.670;2022-09-09T00:08:22;99721.88;;;15.31;100.00
55916;BME280;41826;53.246;-6.670;2022-09-09T00:10:58;99723.50;;;15.32;100.00
55916;BME280;41826;53.246;-6.670;2022-09-09T00:13:37;99725.56;;;15.43;100.00
55916;BME280;41826;53.246;-6.670;2022-09-09T00:16:21;99729.59;;;15.39;100.00
55916;BME280;41826;53.246;-6.670;2022-09-09T00:21:23;99721.91;;;15.37;100.00
55916;BME280;41826;53.246;-6.670;2022-09-09T00:23:53;99732.88;;;15.34;100.00
55916;BME280;41826;53.246;-6.670;2022-09-09T00:31:37;99733.25;;;15.31;100.00
55916;BME280;41826;53.246;-6.670;2022-09-09T00:34:24;99727.75;;;15.26;100.00
55916;BME280;41826;53.246;-6.670;2022-09-09T00:36:53;99738.31;;;15.26;100.00
55916;BME280;41826;53.246;-6.670;2022-09-09T00:39:36;99741.19;;;15.25;100.00
55916;BME280;41826;53.246;-6.670;2022-09-09T00:44:36;99741.53;;;15.22;100.00
55916;BME280;41826;53.246;-6.670;2022-09-09T00:55:56;99750.31;;;15.22;100.00
55916;BME280;41826;53.246;-6.670;2022-09-09T00:58:25;99752.91;;;15.15;100.00
55916;BME280;41826;53.246;-6.670;2022-09-09T01:00:57;99749.88;;;15.18;100.00
55916;BME280;41826;53.246;-6.670;2022-09-09T01:03:34;99759.59;;;15.11;100.00
55916;BME280;41826;53.246;-6.670;2022-09-09T01:06:31;99750.31;;;15.22;100.00
55916;BME280;41826;53.246;-6.670;2022-09-09T01:11:57;99754.75;;;15.22;100.00
55916;BME280;41826;53.246;-6.670;2022-09-09T01:14:42;99754.34;;;15.18;100.00
55916;BME280;41826;53.246;-6.670;2022-09-09T01:17:34;99748.09;;;15.26;100.00
55916;BME280;41826;53.246;-6.670;2022-09-09T01:20:14;99747.28;;;15.25;100.00
55916;BME280;41826;53.246;-6.670;2022-09-09T01:28:00;99741.34;;;15.23;100.00
55916;BME280;41826;53.246;-6.670;2022-09-09T01:30:27;99742.59;;;15.27;100.00
55916;BME280;41826;53.246;-6.670;2022-09-09T01:32:55;99749.88;;;15.18;100.00
55916;BME280;41826;53.246;-6.670;2022-09-09T01:38:10;99740.31;;;15.17;100.00
55916;BME280;41826;53.246;-6.670;2022-09-09T01:40:36;99742.56;;;15.21;100.00
55916;BME280;41826;53.246;-6.670;2022-09-09T01:43:02;99745.22;;;15.21;100.00
55916;BME280;41826;53.246;-6.670;2022-09-09T01:45:28;99734.63;;;15.21;100.00
55916;BME280;41826;53.246;-6.670;2022-09-09T01:47:53;99737.47;;;15.19;100.00
55916;BME280;41826;53.246;-6.670;2022-09-09T01:50:20;99736.47;;;15.20;100.00
55916;BME280;41826;53.246;-6.670;2022-09-09T01:52:47;99738.91;;;15.22;100.00
55916;BME280;41826;53.246;-6.670;2022-09-09T01:55:15;99742.16;;;15.24;100.00
55916;BME280;41826;53.246;-6.670;2022-09-09T02:00:32;99745.38;;;15.12;100.00
55916;BME280;41826;53.246;-6.670;2022-09-09T02:03:08;99742.53;;;15.14;100.00
55916;BME280;41826;53.246;-6.670;2022-09-09T02:05:44;99752.06;;;15.08;100.00
55916;BME280;41826;53.246;-6.670;2022-09-09T02:11:22;99752.69;;;15.10;100.00
55916;BME280;41826;53.246;-6.670;2022-09-09T02:13:52;99742.94;;;15.11;100.00
55916;BME280;41826;53.246;-6.670;2022-09-09T02:21:39;99741.94;;;15.18;100.00
55916;BME280;41826;53.246;-6.670;2022-09-09T02:24:08;99743.97;;;15.16;100.00
55916;BME280;41826;53.246;-6.670;2022-09-09T02:26:38;99761.88;;;15.14;100.00
55916;BME280;41826;53.246;-6.670;2022-09-09T02:29:09;99747.84;;;15.21;100.00
55916;BME280;41826;53.246;-6.670;2022-09-09T02:31:38;99761.03;;;15.14;100.00
55916;BME280;41826;53.246;-6.670;2022-09-09T02:34:05;99754.94;;;15.13;100.00
55916;BME280;41826;53.246;-6.670;2022-09-09T02:36:35;99761.25;;;15.12;100.00
55916;BME280;41826;53.246;-6.670;2022-09-09T02:39:02;99749.88;;;15.18;100.00
55916;BME280;41826;53.246;-6.670;2022-09-09T02:41:38;99756.78;;;15.13;100.00
55916;BME280;41826;53.246;-6.670;2022-09-09T02:44:15;99754.34;;;15.18;100.00
55916;BME280;41826;53.246;-6.670;2022-09-09T02:52:13;99741.53;;;15.15;100.00
55916;BME280;41826;53.246;-6.670;2022-09-09T02:54:41;99745.38;;;15.12;100.00
55916;BME280;41826;53.246;-6.670;2022-09-09T02:57:15;99745.78;;;15.16;100.00
55916;BME280;41826;53.246;-6.670;2022-09-09T02:59:43;99734.41;;;15.15;100.00
55916;BME280;41826;53.246;-6.670;2022-09-09T03:02:09;99734.22;;;15.17;100.00
55916;BME280;41826;53.246;-6.670;2022-09-09T03:04:37;99743.38;;;15.14;100.00
55916;BME280;41826;53.246;-6.670;2022-09-09T03:07:03;99734.41;;;15.15;100.00
55916;BME280;41826;53.246;-6.670;2022-09-09T03:09:29;99734.00;;;15.12;100.00
55916;BME280;41826;53.246;-6.670;2022-09-09T03:11:54;99733.78;;;15.13;100.00
55916;BME280;41826;53.246;-6.670;2022-09-09T03:14:20;99736.44;;;15.13;100.00
55916;BME280;41826;53.246;-6.670;2022-09-09T03:16:50;99731.16;;;15.13;100.00
55916;BME280;41826;53.246;-6.670;2022-09-09T03:19:15;99728.28;;;15.08;100.00
55916;BME280;41826;53.246;-6.670;2022-09-09T03:21:41;99732.34;;;15.11;100.00
55916;BME280;41826;53.246;-6.670;2022-09-09T03:24:06;99727.06;;;15.11;100.00
55916;BME280;41826;53.246;-6.670;2022-09-09T03:26:32;99726.66;;;15.07;100.00
55916;BME280;41826;53.246;-6.670;2022-09-09T03:28:58;99728.72;;;15.12;100.00
55916;BME280;41826;53.246;-6.670;2022-09-09T03:31:25;99728.50;;;15.13;100.00
55916;BME280;41826;53.246;-6.670;2022-09-09T03:33:51;99730.16;;;15.14;100.00
55916;BME280;41826;53.246;-6.670;2022-09-09T03:36:17;99730.72;;;15.10;100.00
55916;BME280;41826;53.246;-6.670;2022-09-09T03:38:42;99739.66;;;15.09;100.00
55916;BME280;41826;53.246;-6.670;2022-09-09T03:41:07;99736.44;;;15.13;100.00
55916;BME280;41826;53.246;-6.670;2022-09-09T03:43:33;99737.22;;;15.07;100.00
55916;BME280;41826;53.246;-6.670;2022-09-09T03:45:59;99753.09;;;15.14;100.00
55916;BME280;41826;53.246;-6.670;2022-09-09T03:48:25;99749.03;;;15.11;100.00
55916;BME280;41826;53.246;-6.670;2022-09-09T03:50:53;99749.00;;;15.05;100.00
55916;BME280;41826;53.246;-6.670;2022-09-09T03:53:20;99750.63;;;15.06;100.00
55916;BME280;41826;53.246;-6.670;2022-09-09T03:55:49;99745.78;;;15.09;100.00
55916;BME280;41826;53.246;-6.670;2022-09-09T03:58:16;99747.81;;;15.14;100.00
55916;BME280;41826;53.246;-6.670;2022-09-09T04:00:43;99743.38;;;15.14;100.00
55916;BME280;41826;53.246;-6.670;2022-09-09T04:03:10;99742.34;;;15.15;100.00
55916;BME280;41826;53.246;-6.670;2022-09-09T04:05:36;99748.25;;;15.17;100.00
55916;BME280;41826;53.246;-6.670;2022-09-09T04:08:06;99751.06;;;15.09;100.00
55916;BME280;41826;53.246;-6.670;2022-09-09T04:10:31;99751.06;;;15.09;100.00
55916;BME280;41826;53.246;-6.670;2022-09-09T04:12:56;99747.00;;;15.13;100.00
55916;BME280;41826;53.246;-6.670;2022-09-09T04:15:22;99740.09;;;15.12;100.00
55916;BME280;41826;53.246;-6.670;2022-09-09T04:17:47;99738.44;;;15.11;100.00
55916;BME280;41826;53.246;-6.670;2022-09-09T04:20:13;99742.97;;;15.17;100.00
55916;BME280;41826;53.246;-6.670;2022-09-09T04:22:38;99736.66;;;15.18;100.00
55916;BME280;41826;53.246;-6.670;2022-09-09T04:25:05;99734.41;;;15.15;100.00
55916;BME280;41826;53.246;-6.670;2022-09-09T04:27:31;99735.81;;;15.11;100.00
55916;BME280;41826;53.246;-6.670;2022-09-09T04:29:57;99740.72;;;15.14;100.00
55916;BME280;41826;53.246;-6.670;2022-09-09T04:32:23;99734.59;;;15.14;100.00
55916;BME280;41826;53.246;-6.670;2022-09-09T04:34:48;99746.19;;;15.13;100.00
55916;BME280;41826;53.246;-6.670;2022-09-09T04:37:14;99743.97;;;15.10;100.00
55916;BME280;41826;53.246;-6.670;2022-09-09T04:39:39;99737.25;;;15.14;100.00
55916;BME280;41826;53.246;-6.670;2022-09-09T04:42:04;99747.59;;;15.09;100.00
55916;BME280;41826;53.246;-6.670;2022-09-09T04:44:30;99743.97;;;15.10;100.00
55916;BME280;41826;53.246;-6.670;2022-09-09T04:46:55;99740.50;;;15.09;100.00
55916;BME280;41826;53.246;-6.670;2022-09-09T04:49:21;99735.81;;;15.11;100.00
55916;BME280;41826;53.246;-6.670;2022-09-09T04:51:49;99743.75;;;15.11;100.00
55916;BME280;41826;53.246;-6.670;2022-09-09T04:54:14;99739.88;;;15.14;100.00
55916;BME280;41826;53.246;-6.670;2022-09-09T04:56:39;99733.16;;;15.11;100.00
55916;BME280;41826;53.246;-6.670;2022-09-09T04:59:07;99725.00;;;15.06;100.00
55916;BME280;41826;53.246;-6.670;2022-09-09T05:01:32;99727.88;;;15.11;100.00
55916;BME280;41826;53.246;-6.670;2022-09-09T05:03:58;99728.09;;;15.10;100.00
55916;BME280;41826;53.246;-6.670;2022-09-09T05:06:24;99736.66;;;15.12;100.00
55916;BME280;41826;53.246;-6.670;2022-09-09T05:08:50;99731.78;;;15.15;100.00
55916;BME280;41826;53.246;-6.670;2022-09-09T05:11:23;99728.72;;;15.12;100.00
55916;BME280;41826;53.246;-6.670;2022-09-09T05:13:49;99736.03;;;15.10;100.00
55916;BME280;41826;53.246;-6.670;2022-09-09T05:16:16;99735.00;;;15.11;100.00
55916;BME280;41826;53.246;-6.670;2022-09-09T05:18:42;99739.88;;;15.07;100.00
55916;BME280;41826;53.246;-6.670;2022-09-09T05:21:09;99735.00;;;15.11;100.00
55916;BME280;41826;53.246;-6.670;2022-09-09T05:23:35;99735.81;;;15.11;100.00
55916;BME280;41826;53.246;-6.670;2022-09-09T05:26:01;99737.63;;;15.11;100.00
55916;BME280;41826;53.246;-6.670;2022-09-09T05:28:27;99746.38;;;15.11;100.00
55916;BME280;41826;53.246;-6.670;2022-09-09T05:31:04;99737.47;;;15.12;100.00
55916;BME280;41826;53.246;-6.670;2022-09-09T05:33:31;99745.38;;;15.12;100.00
55916;BME280;41826;53.246;-6.670;2022-09-09T05:36:00;99744.94;;;15.09;100.00
55916;BME280;41826;53.246;-6.670;2022-09-09T05:38:28;99749.03;;;15.11;100.00
55916;BME280;41826;53.246;-6.670;2022-09-09T05:40:54;99749.81;;;15.05;100.00
55916;BME280;41826;53.246;-6.670;2022-09-09T05:43:20;99756.16;;;15.11;100.00
55916;BME280;41826;53.246;-6.670;2022-09-09T05:45:47;99756.34;;;15.09;100.00
55916;BME280;41826;53.246;-6.670;2022-09-09T05:48:14;99757.94;;;15.04;100.00
55916;BME280;41826;53.246;-6.670;2022-09-09T05:50:40;99755.97;;;15.12;100.00
55916;BME280;41826;53.246;-6.670;2022-09-09T05:53:06;99754.53;;;15.10;100.00
55916;BME280;41826;53.246;-6.670;2022-09-09T05:55:31;99756.59;;;15.14;100.00
55916;BME280;41826;53.246;-6.670;2022-09-09T05:57:57;99762.47;;;15.16;100.00
55916;BME280;41826;53.246;-6.670;2022-09-09T06:00:22;99764.13;;;15.17;100.00
55916;BME280;41826;53.246;-6.670;2022-09-09T06:02:51;99768.16;;;15.13;100.00
55916;BME280;41826;53.246;-6.670;2022-09-09T06:05:18;99769.81;;;15.14;100.00
55916;BME280;41826;53.246;-6.670;2022-09-09T06:07:43;99770.81;;;15.13;100.00
55916;BME280;41826;53.246;-6.670;2022-09-09T06:10:10;99767.34;;;15.13;100.00
55916;BME280;41826;53.246;-6.670;2022-09-09T06:12:36;99770.22;;;15.18;100.00
55916;BME280;41826;53.246;-6.670;2022-09-09T06:15:01;99768.81;;;15.22;100.00
55916;BME280;41826;53.246;-6.670;2022-09-09T06:17:27;99767.38;;;15.20;100.00
55916;BME280;41826;53.246;-6.670;2022-09-09T06:19:52;99778.38;;;15.23;100.00
55916;BME280;41826;53.246;-6.670;2022-09-09T06:22:18;99778.56;;;15.22;100.00
55916;BME280;41826;53.246;-6.670;2022-09-09T06:24:44;99777.56;;;15.23;100.00
55916;BME280;41826;53.246;-6.670;2022-09-09T06:27:10;99783.25;;;15.20;100.00
55916;BME280;41826;53.246;-6.670;2022-09-09T06:29:36;99780.84;;;15.25;100.00
55916;BME280;41826;53.246;-6.670;2022-09-09T06:32:02;99781.25;;;15.28;100.00
55916;BME280;41826;53.246;-6.670;2022-09-09T06:34:28;99787.34;;;15.29;100.00
55916;BME280;41826;53.246;-6.670;2022-09-09T06:36:53;99788.38;;;15.28;100.00
55916;BME280;41826;53.246;-6.670;2022-09-09T06:39:19;99788.38;;;15.28;100.00
55916;BME280;41826;53.246;-6.670;2022-09-09T06:41:44;99788.19;;;15.29;100.00
55916;BME280;41826;53.246;-6.670;2022-09-09T06:44:10;99792.06;;;15.33;100.00
55916;BME280;41826;53.246;-6.670;2022-09-09T06:46:37;99791.88;;;15.35;100.00
55916;BME280;41826;53.246;-6.670;2022-09-09T06:49:03;99802.63;;;15.27;100.00
55916;BME280;41826;53.246;-6.670;2022-09-09T06:51:31;99799.75;;;15.28;100.00
55916;BME280;41826;53.246;-6.670;2022-09-09T06:53:59;99812.34;;;15.20;100.00
55916;BME280;41826;53.246;-6.670;2022-09-09T06:56:27;99826.28;;;15.07;100.00
55916;BME280;41826;53.246;-6.670;2022-09-09T06:58:54;99830.16;;;15.11;100.00
55916;BME280;41826;53.246;-6.670;2022-09-09T07:01:22;99823.31;;;15.23;100.00
55916;BME280;41826;53.246;-6.670;2022-09-09T07:03:53;99822.13;;;15.26;100.00
55916;BME280;41826;53.246;-6.670;2022-09-09T07:06:33;99824.34;;;15.22;100.00
55916;BME280;41826;53.246;-6.670;2022-09-09T07:09:05;99819.91;;;15.29;100.00
55916;BME280;41826;53.246;-6.670;2022-09-09T07:11:33;99824.75;;;15.26;100.00
55916;BME280;41826;53.246;-6.670;2022-09-09T07:14:00;99829.44;;;15.24;100.00
55916;BME280;41826;53.246;-6.670;2022-09-09T07:16:26;99831.03;;;15.18;100.00
55916;BME280;41826;53.246;-6.670;2022-09-09T07:18:56;99832.31;;;15.29;100.00
55916;BME280;41826;53.246;-6.670;2022-09-09T07:21:27;99834.53;;;15.25;100.00
55916;BME280;41826;53.246;-6.670;2022-09-09T07:23:53;99842.19;;;15.13;100.00
55916;BME280;41826;53.246;-6.670;2022-09-09T07:26:21;99848.16;;;15.22;100.00
55916;BME280;41826;53.246;-6.670;2022-09-09T07:28:47;99846.38;;;15.36;100.00
55916;BME280;41826;53.246;-6.670;2022-09-09T07:31:21;99863.16;;;15.22;100.00
55916;BME280;41826;53.246;-6.670;2022-09-09T07:33:48;99857.13;;;15.28;100.00
55916;BME280;41826;53.246;-6.670;2022-09-09T07:36:19;99850.22;;;15.27;100.00
55916;BME280;41826;53.246;-6.670;2022-09-09T07:38:50;99859.59;;;15.29;100.00
55916;BME280;41826;53.246;-6.670;2022-09-09T07:41:23;99863.66;;;15.32;100.00
55916;BME280;41826;53.246;-6.670;2022-09-09T07:43:50;99871.19;;;15.35;100.00
55916;BME280;41826;53.246;-6.670;2022-09-09T07:46:17;99874.31;;;15.45;100.00
55916;BME280;41826;53.246;-6.670;2022-09-09T07:48:49;99870.06;;;15.51;100.00
55916;BME280;41826;53.246;-6.670;2022-09-09T07:51:18;99879.03;;;15.56;100.00
55916;BME280;41826;53.246;-6.670;2022-09-09T07:53:46;99881.50;;;15.58;100.00
55916;BME280;41826;53.246;-6.670;2022-09-09T07:56:14;99885.34;;;15.55;100.00
55916;BME280;41826;53.246;-6.670;2022-09-09T07:58:42;99889.63;;;15.56;100.00
55916;BME280;41826;53.246;-6.670;2022-09-09T08:01:12;99898.59;;;15.62;100.00
55916;BME280;41826;53.246;-6.670;2022-09-09T08:03:38;99906.69;;;15.47;100.00
55916;BME280;41826;53.246;-6.670;2022-09-09T08:06:06;99924.13;;;15.42;100.00
55916;BME280;41826;53.246;-6.670;2022-09-09T08:08:34;99918.13;;;15.61;100.00
55916;BME280;41826;53.246;-6.670;2022-09-09T08:11:09;99920.19;;;15.66;100.00
55916;BME280;41826;53.246;-6.670;2022-09-09T08:13:36;99912.88;;;15.68;100.00
55916;BME280;41826;53.246;-6.670;2022-09-09T08:16:19;99920.66;;;15.69;100.00
55916;BME280;41826;53.246;-6.670;2022-09-09T08:18:47;99926.56;;;15.71;100.00
55916;BME280;41826;53.246;-6.670;2022-09-09T08:21:15;99928.44;;;15.77;100.00
55916;BME280;41826;53.246;-6.670;2022-09-09T08:23:44;99925.41;;;15.80;100.00
55916;BME280;41826;53.246;-6.670;2022-09-09T08:26:16;99932.53;;;15.80;100.00
55916;BME280;41826;53.246;-6.670;2022-09-09T08:28:42;99936.75;;;15.74;100.00
55916;BME280;41826;53.246;-6.670;2022-09-09T08:33:35;99962.94;;;15.63;100.00
55916;BME280;41826;53.246;-6.670;2022-09-09T08:36:03;99967.00;;;15.65;100.00
55916;BME280;41826;53.246;-6.670;2022-09-09T08:38:29;99971.53;;;15.71;100.00
55916;BME280;41826;53.246;-6.670;2022-09-09T08:41:00;99967.75;;;15.80;100.00
55916;BME280;41826;53.246;-6.670;2022-09-09T08:43:30;99978.19;;;15.67;100.00
55916;BME280;41826;53.246;-6.670;2022-09-09T08:51:15;99981.91;;;16.01;100.00
55916;BME280;41826;53.246;-6.670;2022-09-09T08:53:44;99992.03;;;15.97;100.00
55916;BME280;41826;53.246;-6.670;2022-09-09T08:56:18;99982.34;;;16.11;100.00
55916;BME280;41826;53.246;-6.670;2022-09-09T08:58:51;99978.28;;;16.15;100.00
55916;BME280;41826;53.246;-6.670;2022-09-09T09:01:42;99982.97;;;16.20;100.00
55916;BME280;41826;53.246;-6.670;2022-09-09T09:12:25;99996.91;;;15.94;100.00
55916;BME280;41826;53.246;-6.670;2022-09-09T09:14:52;100016.09;;;15.96;100.00
55916;BME280;41826;53.246;-6.670;2022-09-09T09:17:21;100021.03;;;16.06;100.00
55916;BME280;41826;53.246;-6.670;2022-09-09T09:19:49;100029.59;;;16.14;100.00
55916;BME280;41826;53.246;-6.670;2022-09-09T09:22:31;100029.25;;;16.24;100.00
55916;BME280;41826;53.246;-6.670;2022-09-09T09:28:02;100024.88;;;16.58;100.00
55916;BME280;41826;53.246;-6.670;2022-09-09T09:30:42;100022.47;;;16.63;100.00
55916;BME280;41826;53.246;-6.670;2022-09-09T09:35:49;100024.03;;;16.51;100.00
55916;BME280;41826;53.246;-6.670;2022-09-09T09:38:21;100020.03;;;16.68;100.00
55916;BME280;41826;53.246;-6.670;2022-09-09T09:40:55;100027.13;;;16.61;100.00
55916;BME280;41826;53.246;-6.670;2022-09-09T09:43:36;100027.78;;;16.69;100.00
55916;BME280;41826;53.246;-6.670;2022-09-09T09:46:20;100032.28;;;16.69;100.00
55916;BME280;41826;53.246;-6.670;2022-09-09T09:49:09;100038.66;;;16.81;100.00
55916;BME280;41826;53.246;-6.670;2022-09-09T09:51:34;100033.16;;;16.96;100.00
55916;BME280;41826;53.246;-6.670;2022-09-09T09:56:40;100047.03;;;16.98;100.00
55916;BME280;41826;53.246;-6.670;2022-09-09T10:01:54;100043.59;;;17.11;100.00
55916;BME280;41826;53.246;-6.670;2022-09-09T10:04:22;100043.63;;;17.18;100.00
55916;BME280;41826;53.246;-6.670;2022-09-09T10:06:49;100049.53;;;17.26;100.00
55916;BME280;41826;53.246;-6.670;2022-09-09T10:09:30;100049.94;;;17.37;100.00
55916;BME280;41826;53.246;-6.670;2022-09-09T10:17:30;100061.59;;;17.36;100.00
55916;BME280;41826;53.246;-6.670;2022-09-09T10:20:21;100054.03;;;17.46;100.00
55916;BME280;41826;53.246;-6.670;2022-09-09T10:23:02;100058.50;;;17.52;100.00
55916;BME280;41826;53.246;-6.670;2022-09-09T10:25:48;100062.59;;;17.48;100.00
55916;BME280;41826;53.246;-6.670;2022-09-09T10:33:50;100070.56;;;17.41;100.00
55916;BME280;41826;53.246;-6.670;2022-09-09T10:36:20;100080.16;;;17.49;100.00
55916;BME280;41826;53.246;-6.670;2022-09-09T10:38:47;100075.66;;;17.43;100.00
55916;BME280;41826;53.246;-6.670;2022-09-09T10:52:52;100112.38;;;17.26;100.00
55916;BME280;41826;53.246;-6.670;2022-09-09T10:55:22;100111.38;;;17.47;100.00
55916;BME280;41826;53.246;-6.670;2022-09-09T10:57:52;100112.81;;;17.56;100.00
55916;BME280;41826;53.246;-6.670;2022-09-09T11:00:24;100114.84;;;17.54;100.00
55916;BME280;41826;53.246;-6.670;2022-09-09T11:03:30;100123.03;;;17.52;100.00
55916;BME280;41826;53.246;-6.670;2022-09-09T11:06:05;100128.34;;;17.46;100.00
55916;BME280;41826;53.246;-6.670;2022-09-09T11:08:33;100132.59;;;17.47;100.00
55916;BME280;41826;53.246;-6.670;2022-09-09T11:11:03;100133.44;;;17.54;100.00
55916;BME280;41826;53.246;-6.670;2022-09-09T11:19:28;100121.81;;;17.68;100.00
55916;BME280;41826;53.246;-6.670;2022-09-09T11:21:57;100118.56;;;17.80;100.00
55916;BME280;41826;53.246;-6.670;2022-09-09T11:24:47;100128.94;;;17.74;100.00
55916;BME280;41826;53.246;-6.670;2022-09-09T11:27:22;100122.63;;;17.69;100.00
55916;BME280;41826;53.246;-6.670;2022-09-09T11:30:32;100123.69;;;17.88;100.00
55916;BME280;41826;53.246;-6.670;2022-09-09T11:40:31;100123.03;;;18.12;100.00
55916;BME280;41826;53.246;-6.670;2022-09-09T11:43:31;100129.34;;;17.51;100.00
55916;BME280;41826;53.246;-6.670;2022-09-09T11:46:01;100135.09;;;17.68;100.00
55916;BME280;41826;53.246;-6.670;2022-09-09T11:51:32;100139.38;;;18.03;100.00
55916;BME280;41826;53.246;-6.670;2022-09-09T11:56:43;100143.06;;;18.22;100.00
55916;BME280;41826;53.246;-6.670;2022-09-09T11:59:22;100136.13;;;17.67;100.00
55916;BME280;41826;53.246;-6.670;2022-09-09T12:04:37;100143.88;;;18.22;100.00
55916;BME280;41826;53.246;-6.670;2022-09-09T12:09:46;100139.53;;;18.41;100.00
55916;BME280;41826;53.246;-6.670;2022-09-09T12:17:27;100147.56;;;18.14;100.00
55916;BME280;41826;53.246;-6.670;2022-09-09T12:25:23;100155.72;;;18.26;100.00
55916;BME280;41826;53.246;-6.670;2022-09-09T12:33:37;100162.22;;;18.44;100.00
55916;BME280;41826;53.246;-6.670;2022-09-09T12:36:05;100161.94;;;18.65;100.00
55916;BME280;41826;53.246;-6.670;2022-09-09T12:38:38;100164.81;;;18.77;100.00
55916;BME280;41826;53.246;-6.670;2022-09-09T12:41:05;100169.50;;;18.68;100.00
55916;BME280;41826;53.246;-6.670;2022-09-09T12:43:31;100166.63;;;18.83;100.00
55916;BME280;41826;53.246;-6.670;2022-09-09T12:46:08;100168.88;;;18.73;100.00
55916;BME280;41826;53.246;-6.670;2022-09-09T12:48:39;100167.84;;;18.87;100.00
55916;BME280;41826;53.246;-6.670;2022-09-09T12:51:26;100169.75;;;18.60;100.00
55916;BME280;41826;53.246;-6.670;2022-09-09T12:53:53;100181.31;;;18.92;100.00
55916;BME280;41826;53.246;-6.670;2022-09-09T12:56:21;100178.41;;;19.00;100.00
55916;BME280;41826;53.246;-6.670;2022-09-09T12:58:50;100174.59;;;18.90;100.00
55916;BME280;41826;53.246;-6.670;2022-09-09T13:01:28;100178.91;;;18.77;100.00
55916;BME280;41826;53.246;-6.670;2022-09-09T13:03:54;100179.22;;;19.01;100.00
55916;BME280;41826;53.246;-6.670;2022-09-09T13:06:25;100186.13;;;19.15;100.00
55916;BME280;41826;53.246;-6.670;2022-09-09T13:08:52;100179.53;;;19.24;100.00
55916;BME280;41826;53.246;-6.670;2022-09-09T13:11:25;100183.22;;;19.23;100.00
55916;BME280;41826;53.246;-6.670;2022-09-09T13:13:53;100176.47;;;19.21;100.00
55916;BME280;41826;53.246;-6.670;2022-09-09T13:18:46;100186.47;;;19.32;100.00
55916;BME280;41826;53.246;-6.670;2022-09-09T13:21:12;100184.56;;;19.39;100.00
55916;BME280;41826;53.246;-6.670;2022-09-09T13:23:38;100178.59;;;19.44;100.00
55916;BME280;41826;53.246;-6.670;2022-09-09T13:26:06;100185.13;;;19.48;100.00
55916;BME280;41826;53.246;-6.670;2022-09-09T13:28:45;100178.22;;;19.40;100.00
55916;BME280;41826;53.246;-6.670;2022-09-09T13:31:23;100183.09;;;19.43;100.00
55916;BME280;41826;53.246;-6.670;2022-09-09T13:33:49;100188.44;;;19.43;100.00
55916;BME280;41826;53.246;-6.670;2022-09-09T13:36:15;100190.91;;;19.45;100.00
55916;BME280;41826;53.246;-6.670;2022-09-09T13:38:54;100188.69;;;19.74;100.00
55916;BME280;41826;53.246;-6.670;2022-09-09T13:41:22;100198.84;;;19.83;100.00
55916;BME280;41826;53.246;-6.670;2022-09-09T13:43:49;100203.38;;;19.83;100.00
55916;BME280;41826;53.246;-6.670;2022-09-09T13:49:17;100191.97;;;19.69;100.00
55916;BME280;41826;53.246;-6.670;2022-09-09T13:51:46;100191.72;;;19.77;100.00
55916;BME280;41826;53.246;-6.670;2022-09-09T13:54:14;100195.69;;;19.61;100.00
55916;BME280;41826;53.246;-6.670;2022-09-09T13:56:41;100189.03;;;19.77;100.00
55916;BME280;41826;53.246;-6.670;2022-09-09T13:59:12;100198.69;;;19.78;100.00
55916;BME280;41826;53.246;-6.670;2022-09-09T14:01:39;100203.38;;;19.83;100.00
55916;BME280;41826;53.246;-6.670;2022-09-09T14:04:04;100205.63;;;19.79;100.00
55916;BME280;41826;53.246;-6.670;2022-09-09T14:06:31;100198.59;;;19.91;100.00
55916;BME280;41826;53.246;-6.670;2022-09-09T14:08:58;100204.69;;;19.99;100.00
55916;BME280;41826;53.246;-6.670;2022-09-09T14:11:24;100213.56;;;19.16;100.00
55916;BME280;41826;53.246;-6.670;2022-09-09T14:13:49;100226.50;;;19.44;100.00
55916;BME280;41826;53.246;-6.670;2022-09-09T14:16:16;100232.38;;;19.59;100.00
55916;BME280;41826;53.246;-6.670;2022-09-09T14:18:43;100238.41;;;19.41;100.00
55916;BME280;41826;53.246;-6.670;2022-09-09T14:21:09;100236.56;;;18.90;100.00
55916;BME280;41826;53.246;-6.670;2022-09-09T14:23:34;100234.00;;;19.22;100.00
55916;BME280;41826;53.246;-6.670;2022-09-09T14:26:00;100238.78;;;19.00;100.00
55916;BME280;41826;53.246;-6.670;2022-09-09T14:28:25;100241.41;;;19.13;100.00
55916;BME280;41826;53.246;-6.670;2022-09-09T14:30:51;100240.78;;;19.56;100.00
55916;BME280;41826;53.246;-6.670;2022-09-09T14:33:16;100243.19;;;19.64;100.00
55916;BME280;41826;53.246;-6.670;2022-09-09T14:35:43;100243.16;;;19.78;100.00
55916;BME280;41826;53.246;-6.670;2022-09-09T14:38:09;100236.44;;;19.62;100.00
55916;BME280;41826;53.246;-6.670;2022-09-09T14:40:36;100229.22;;;19.76;100.00
55916;BME280;41826;53.246;-6.670;2022-09-09T14:43:02;100234.22;;;19.59;100.00
55916;BME280;41826;53.246;-6.670;2022-09-09T14:45:28;100249.75;;;19.62;100.00
55916;BME280;41826;53.246;-6.670;2022-09-09T14:47:54;100249.75;;;19.62;100.00
55916;BME280;41826;53.246;-6.670;2022-09-09T14:50:21;100243.91;;;19.85;100.00
55916;BME280;41826;53.246;-6.670;2022-09-09T14:52:47;100241.03;;;18.96;100.00
55916;BME280;41826;53.246;-6.670;2022-09-09T14:55:13;100248.50;;;19.33;100.00
55916;BME280;41826;53.246;-6.670;2022-09-09T14:57:38;100245.78;;;19.39;100.00
55916;BME280;41826;53.246;-6.670;2022-09-09T15:00:06;100244.25;;;19.18;100.00
55916;BME280;41826;53.246;-6.670;2022-09-09T15:02:33;100240.72;;;19.31;100.00
55916;BME280;41826;53.246;-6.670;2022-09-09T15:04:59;100237.25;;;18.52;100.00
55916;BME280;41826;53.246;-6.670;2022-09-09T15:07:25;100244.38;;;18.85;100.00
55916;BME280;41826;53.246;-6.670;2022-09-09T15:09:51;100251.34;;;18.33;100.00